createdAt,value
2023-10-11T00:00:30.225Z,12.72
2023-10-11T00:03:33.857Z,12.87
2023-10-11T00:06:37.589Z,12.89
2023-10-11T00:09:41.676Z,12.70
2023-10-11T00:12:45.199Z,12.76
2023-10-11T00:15:51.638Z,12.70
2023-10-11T00:18:57.677Z,12.76
2023-10-11T00:22:02.415Z,12.88
2023-10-11T00:25:06.120Z,12.98
2023-10-11T00:28:10.353Z,13.15
2023-10-11T00:31:19.062Z,13.24
2023-10-11T00:34:22.801Z,13.35
2023-10-11T00:37:26.567Z,13.20
2023-10-11T00:40:33.453Z,13.28
2023-10-11T00:43:43.310Z,13.28
2023-10-11T00:47:01.680Z,13.21
2023-10-11T00:50:07.052Z,13.25
2023-10-11T00:53:11.645Z,13.44
2023-10-11T00:56:16.181Z,13.48
2023-10-11T00:59:22.657Z,13.64
2023-10-11T01:02:25.609Z,13.72
2023-10-11T01:05:30.361Z,13.81
2023-10-11T01:08:40.892Z,13.53
2023-10-11T01:11:45.378Z,13.69
2023-10-11T01:15:00.635Z,13.67
2023-10-11T01:18:04.874Z,13.64
2023-10-11T01:21:14.127Z,13.60
2023-10-11T01:24:18.195Z,13.63
2023-10-11T01:27:23.651Z,13.44
2023-10-11T01:30:28.702Z,13.57
2023-10-11T01:33:31.645Z,13.41
2023-10-11T01:36:36.000Z,13.40
2023-10-11T01:39:42.076Z,13.31
2023-10-11T01:42:45.553Z,13.55
2023-10-11T01:45:48.556Z,13.53
2023-10-11T01:48:53.191Z,13.50
2023-10-11T01:51:56.280Z,13.54
2023-10-11T01:55:03.160Z,13.62
2023-10-11T01:58:09.024Z,13.67
2023-10-11T02:01:27.560Z,13.70
2023-10-11T02:04:32.303Z,13.49
2023-10-11T02:07:35.312Z,13.54
2023-10-11T02:10:39.011Z,13.43
2023-10-11T02:13:43.941Z,13.55
2023-10-11T02:16:47.231Z,13.43
2023-10-11T02:19:51.230Z,13.38
2023-10-11T02:22:57.082Z,13.36
2023-10-11T02:26:00.605Z,13.34
2023-10-11T02:29:08.183Z,13.48
2023-10-11T02:32:11.497Z,13.46
2023-10-11T02:35:15.481Z,13.36
2023-10-11T02:38:41.833Z,13.41
2023-10-11T02:41:51.960Z,13.49
2023-10-11T02:44:55.333Z,13.41
2023-10-11T02:48:04.096Z,13.33
2023-10-11T02:51:15.169Z,13.37
2023-10-11T02:54:18.877Z,13.39
2023-10-11T02:57:22.679Z,13.41
2023-10-11T03:00:25.983Z,13.55
2023-10-11T03:03:30.206Z,13.58
2023-10-11T03:06:37.027Z,13.67
2023-10-11T03:09:42.252Z,13.74
2023-10-11T03:12:45.854Z,13.78
2023-10-11T03:15:56.286Z,13.79
2023-10-11T03:19:00.965Z,13.69
2023-10-11T03:22:04.866Z,13.68
2023-10-11T03:25:14.754Z,13.61
2023-10-11T03:28:23.029Z,13.64
2023-10-11T03:31:30.662Z,13.77
2023-10-11T03:34:34.718Z,13.82
2023-10-11T03:37:41.712Z,13.77
2023-10-11T03:40:57.290Z,13.74
2023-10-11T03:44:11.214Z,13.72
2023-10-11T03:47:16.143Z,13.61
2023-10-11T03:50:26.005Z,13.62
2023-10-11T03:53:33.764Z,13.67
2023-10-11T03:56:36.935Z,13.70
2023-10-11T03:59:41.647Z,13.79
2023-10-11T04:02:44.516Z,13.78
2023-10-11T04:05:49.399Z,13.74
2023-10-11T04:08:57.558Z,13.83
2023-10-11T04:12:02.241Z,13.78
2023-10-11T04:15:19.468Z,13.82
2023-10-11T04:18:35.211Z,13.69
2023-10-11T04:21:55.756Z,13.72
2023-10-11T04:25:08.183Z,13.80
2023-10-11T04:28:13.953Z,13.79
2023-10-11T04:31:32.898Z,13.87
2023-10-11T04:34:40.119Z,13.72
2023-10-11T04:37:51.685Z,13.60
2023-10-11T04:40:54.465Z,13.56
2023-10-11T04:44:07.992Z,13.43
2023-10-11T04:47:12.217Z,13.41
2023-10-11T04:50:16.094Z,13.32
2023-10-11T04:53:19.714Z,13.36
2023-10-11T04:56:46.848Z,13.40
2023-10-11T04:59:50.365Z,13.43
2023-10-11T05:02:59.960Z,13.55
2023-10-11T05:06:11.058Z,13.65
2023-10-11T05:09:17.188Z,13.72
2023-10-11T05:12:23.619Z,13.66
2023-10-11T05:15:31.894Z,13.52
2023-10-11T05:18:39.696Z,13.55
2023-10-11T05:21:46.566Z,13.52
2023-10-11T05:25:01.536Z,13.49
2023-10-11T05:28:23.438Z,13.48
2023-10-11T05:31:36.127Z,13.46
2023-10-11T05:35:15.089Z,13.49
2023-10-11T05:38:39.629Z,13.56
2023-10-11T05:42:02.039Z,13.59
2023-10-11T05:45:24.227Z,13.72
2023-10-11T05:48:46.450Z,13.82
2023-10-11T05:51:51.971Z,13.95
2023-10-11T05:54:55.784Z,14.08
2023-10-11T05:58:05.881Z,14.22
2023-10-11T06:01:15.165Z,14.30
2023-10-11T06:04:18.579Z,14.36
2023-10-11T06:07:23.003Z,14.45
2023-10-11T06:10:31.268Z,14.49
2023-10-11T06:13:34.110Z,14.52
2023-10-11T06:16:41.118Z,14.52
2023-10-11T06:19:55.304Z,14.52
2023-10-11T06:23:03.827Z,14.51
2023-10-11T06:26:39.617Z,14.55
2023-10-11T06:29:56.029Z,14.58
2023-10-11T06:33:03.412Z,14.67
2023-10-11T06:36:16.217Z,14.77
2023-10-11T06:39:36.789Z,14.85
2023-10-11T06:42:44.095Z,14.95
2023-10-11T06:45:51.167Z,15.09
2023-10-11T06:48:57.047Z,15.19
2023-10-11T06:52:03.093Z,15.26
2023-10-11T06:55:09.804Z,15.35
2023-10-11T06:58:17.741Z,15.49
2023-10-11T07:01:22.416Z,15.59
2023-10-11T07:04:26.066Z,15.73
2023-10-11T07:07:34.398Z,15.84
2023-10-11T07:10:42.254Z,15.98
2023-10-11T07:13:57.058Z,16.16
2023-10-11T07:17:02.360Z,16.30
2023-10-11T07:20:28.967Z,16.43
2023-10-11T07:23:47.694Z,16.59
2023-10-11T07:26:51.158Z,16.75
2023-10-11T07:29:56.486Z,16.75
2023-10-11T07:33:05.741Z,16.81
2023-10-11T07:36:13.414Z,16.87
2023-10-11T07:39:18.174Z,16.93
2023-10-11T07:42:27.710Z,16.99
2023-10-11T07:45:30.991Z,17.04
2023-10-11T07:48:34.863Z,17.18
2023-10-11T07:51:42.415Z,17.28
2023-10-11T07:54:45.304Z,17.39
2023-10-11T07:57:48.977Z,17.51
2023-10-11T08:00:52.755Z,17.56
2023-10-11T08:03:56.263Z,17.67
2023-10-11T08:07:08.150Z,17.78
2023-10-11T08:10:40.841Z,17.90
2023-10-11T08:13:45.338Z,17.97
2023-10-11T08:16:51.524Z,18.00
2023-10-11T08:19:57.549Z,18.15
2023-10-11T08:23:09.814Z,18.38
2023-10-11T08:26:16.623Z,18.54
2023-10-11T08:29:33.760Z,18.65
2023-10-11T08:32:50.077Z,18.86
2023-10-11T08:35:56.768Z,19.06
2023-10-11T08:39:01.802Z,19.29
2023-10-11T08:42:11.809Z,19.39
2023-10-11T08:45:17.524Z,19.63
2023-10-11T08:48:26.967Z,20.07
2023-10-11T08:51:38.382Z,20.33
2023-10-11T08:54:42.466Z,20.53
2023-10-11T08:57:48.530Z,21.26
2023-10-11T09:00:56.487Z,22.26
2023-10-11T09:04:17.946Z,22.87
2023-10-11T09:07:38.985Z,23.26
2023-10-11T09:10:42.164Z,23.81
2023-10-11T09:13:48.143Z,24.53
2023-10-11T09:16:53.546Z,24.54
2023-10-11T09:20:01.872Z,24.84
2023-10-11T09:23:07.274Z,24.40
2023-10-11T09:26:10.796Z,25.23
2023-10-11T09:29:25.566Z,25.44
2023-10-11T09:32:35.693Z,25.01
2023-10-11T09:35:38.676Z,25.97
2023-10-11T09:38:44.661Z,26.30
2023-10-11T09:41:55.383Z,25.76
2023-10-11T09:45:00.830Z,25.54
2023-10-11T09:48:07.609Z,25.49
2023-10-11T09:51:15.788Z,25.60
2023-10-11T09:54:19.516Z,25.00
2023-10-11T09:57:35.154Z,25.51
2023-10-11T10:00:52.470Z,25.92
2023-10-11T10:03:56.117Z,26.07
2023-10-11T10:07:14.851Z,25.99
2023-10-11T10:10:27.247Z,26.50
2023-10-11T10:13:50.837Z,25.63
2023-10-11T10:17:28.574Z,26.12
2023-10-11T10:20:45.903Z,26.48
2023-10-11T10:23:53.388Z,26.17
2023-10-11T10:26:56.693Z,27.26
2023-10-11T10:30:01.743Z,26.99
2023-10-11T10:33:26.423Z,26.93
2023-10-11T10:36:32.885Z,26.55
2023-10-11T10:39:48.229Z,26.52
2023-10-11T10:43:29.673Z,25.97
2023-10-11T10:46:34.340Z,25.78
2023-10-11T10:49:45.808Z,26.03
2023-10-11T10:52:54.782Z,26.31
2023-10-11T10:55:59.648Z,26.47
2023-10-11T10:59:15.749Z,27.26
2023-10-11T11:02:20.963Z,26.63
2023-10-11T11:05:32.722Z,26.51
2023-10-11T11:08:39.053Z,26.18
2023-10-11T11:11:45.398Z,26.21
2023-10-11T11:15:09.845Z,26.23
2023-10-11T11:18:16.480Z,25.83
2023-10-11T11:21:27.352Z,26.13
2023-10-11T11:24:36.483Z,26.65
2023-10-11T11:27:44.780Z,26.01
2023-10-11T11:30:53.863Z,25.88
2023-10-11T11:34:14.641Z,26.04
2023-10-11T11:37:22.256Z,26.65
2023-10-11T11:40:27.186Z,27.13
2023-10-11T11:43:35.226Z,27.04
2023-10-11T11:46:38.843Z,27.26
2023-10-11T11:49:42.338Z,26.48
2023-10-11T11:52:46.948Z,26.68
2023-10-11T11:55:50.955Z,27.28
2023-10-11T11:59:01.736Z,27.35
2023-10-11T12:02:10.183Z,27.21
2023-10-11T12:05:14.587Z,27.42
2023-10-11T12:08:20.499Z,27.17
2023-10-11T12:11:24.371Z,27.35
2023-10-11T12:14:27.523Z,27.67
2023-10-11T12:17:30.929Z,27.90
2023-10-11T12:20:37.757Z,28.08
2023-10-11T12:23:53.229Z,27.74
2023-10-11T12:26:59.658Z,27.50
2023-10-11T12:30:09.550Z,27.32
2023-10-11T12:33:12.808Z,27.35
2023-10-11T12:36:21.872Z,27.20
2023-10-11T12:39:26.779Z,27.46
2023-10-11T12:42:30.248Z,27.69
2023-10-11T12:45:33.768Z,27.84
2023-10-11T12:48:38.690Z,27.58
2023-10-11T12:51:43.609Z,27.75
2023-10-11T12:54:46.823Z,28.06
2023-10-11T12:57:49.896Z,28.18
2023-10-11T13:00:53.313Z,27.85
2023-10-11T13:04:07.379Z,27.71
2023-10-11T13:07:15.493Z,27.60
2023-10-11T13:10:18.461Z,27.14
2023-10-11T13:13:23.015Z,26.79
2023-10-11T13:16:28.769Z,26.38
2023-10-11T13:19:32.864Z,26.56
2023-10-11T13:22:36.420Z,25.87
2023-10-11T13:25:39.614Z,25.71
2023-10-11T13:28:43.386Z,25.72
2023-10-11T13:31:47.772Z,25.62
2023-10-11T13:34:53.106Z,25.20
2023-10-11T13:37:56.655Z,24.92
2023-10-11T13:41:02.909Z,24.47
2023-10-11T13:44:06.500Z,24.09
2023-10-11T13:47:10.770Z,23.77
2023-10-11T13:50:36.950Z,23.66
2023-10-11T13:53:42.933Z,23.61
2023-10-11T13:56:45.949Z,23.50
2023-10-11T13:59:52.090Z,23.46
2023-10-11T14:03:15.779Z,23.30
2023-10-11T14:06:32.134Z,23.22
2023-10-11T14:09:35.028Z,23.08
2023-10-11T14:12:38.949Z,23.01
2023-10-11T14:15:42.690Z,23.03
2023-10-11T14:18:46.094Z,23.03
2023-10-11T14:21:49.286Z,22.98
2023-10-11T14:24:53.673Z,22.95
2023-10-11T14:27:56.429Z,22.97
2023-10-11T14:31:01.956Z,23.00
2023-10-11T14:34:05.887Z,23.06
2023-10-11T14:37:13.540Z,23.04
2023-10-11T14:40:17.440Z,23.00
2023-10-11T14:43:21.810Z,22.89
2023-10-11T14:46:27.154Z,22.80
2023-10-11T14:49:30.596Z,22.82
2023-10-11T14:52:33.462Z,22.79
2023-10-11T14:55:36.675Z,22.70
2023-10-11T14:58:39.512Z,22.73
2023-10-11T15:01:43.257Z,22.73
2023-10-11T15:04:46.210Z,22.66
2023-10-11T15:07:54.146Z,22.53
2023-10-11T15:10:57.281Z,22.46
2023-10-11T15:14:05.243Z,22.38
2023-10-11T15:17:11.617Z,22.38
2023-10-11T15:20:15.682Z,22.34
2023-10-11T15:23:20.021Z,22.32
2023-10-11T15:26:23.285Z,22.29
2023-10-11T15:29:26.219Z,22.27
2023-10-11T15:32:33.285Z,22.20
2023-10-11T15:35:36.774Z,22.03
2023-10-11T15:38:40.012Z,21.98
2023-10-11T15:41:45.326Z,21.91
2023-10-11T15:44:48.561Z,21.83
2023-10-11T15:47:51.481Z,21.68
2023-10-11T15:51:05.265Z,21.55
2023-10-11T15:54:10.958Z,21.40
2023-10-11T15:57:16.147Z,21.26
2023-10-11T16:00:21.496Z,21.14
2023-10-11T16:03:25.685Z,21.05
2023-10-11T16:06:29.701Z,20.93
2023-10-11T16:09:36.531Z,20.78
2023-10-11T16:12:43.348Z,20.62
2023-10-11T16:15:46.940Z,20.43
2023-10-11T16:18:50.104Z,20.23
2023-10-11T16:21:56.472Z,20.12
2023-10-11T16:25:00.509Z,20.06
2023-10-11T16:28:03.718Z,19.99
2023-10-11T16:31:09.355Z,20.01
2023-10-11T16:34:12.643Z,20.03
2023-10-11T16:37:15.545Z,20.05
2023-10-11T16:40:19.719Z,20.11
2023-10-11T16:43:22.647Z,20.03
2023-10-11T16:49:32.805Z,19.87
2023-10-11T16:52:35.889Z,19.70
2023-10-11T16:55:39.545Z,19.58
2023-10-11T16:58:46.042Z,19.57
2023-10-11T17:01:51.368Z,19.55
2023-10-11T17:04:55.953Z,19.49
2023-10-11T17:07:59.901Z,19.32
2023-10-11T17:11:11.427Z,19.07
2023-10-11T17:14:16.761Z,19.05
2023-10-11T17:17:21.121Z,19.09
2023-10-11T17:20:24.953Z,19.07
2023-10-11T17:23:28.831Z,19.07
2023-10-11T17:26:33.921Z,19.12
2023-10-11T17:29:37.773Z,19.04
2023-10-11T17:32:44.606Z,18.94
2023-10-11T17:35:49.092Z,18.87
2023-10-11T17:38:52.722Z,18.78
2023-10-11T17:41:59.350Z,18.69
2023-10-11T17:45:03.058Z,18.59
2023-10-11T17:48:07.625Z,18.53
2023-10-11T17:51:20.167Z,18.51
2023-10-11T17:54:24.668Z,18.48
2023-10-11T17:57:29.218Z,18.48
2023-10-11T18:00:39.360Z,18.45
2023-10-11T18:03:46.538Z,18.46
2023-10-11T18:06:55.093Z,18.43
2023-10-11T18:10:06.232Z,18.33
2023-10-11T18:13:13.011Z,18.35
2023-10-11T18:16:22.225Z,18.34
2023-10-11T18:19:28.178Z,18.34
2023-10-11T18:22:33.363Z,18.30
2023-10-11T18:25:38.786Z,18.29
2023-10-11T18:28:48.948Z,18.32
2023-10-11T18:31:56.175Z,18.28
2023-10-11T18:35:05.771Z,18.31
2023-10-11T18:38:12.087Z,18.35
2023-10-11T18:41:27.244Z,18.37
2023-10-11T18:44:34.959Z,18.38
2023-10-11T18:47:41.909Z,18.38
2023-10-11T18:50:49.754Z,18.41
2023-10-11T18:54:00.324Z,18.39
2023-10-11T18:57:08.786Z,18.44
2023-10-11T19:00:19.309Z,18.34
2023-10-11T19:03:26.921Z,18.30
2023-10-11T19:06:34.143Z,18.24
2023-10-11T19:09:41.774Z,18.27
2023-10-11T19:12:51.668Z,18.24
2023-10-11T19:16:01.459Z,18.24
2023-10-11T19:19:15.362Z,18.23
2023-10-11T19:22:18.670Z,18.21
2023-10-11T19:25:29.748Z,18.21
2023-10-11T19:28:33.414Z,18.28
2023-10-11T19:31:38.847Z,18.27
2023-10-11T19:34:44.895Z,18.27
2023-10-11T19:37:49.824Z,18.25
2023-10-11T19:41:02.452Z,18.21
2023-10-11T19:44:07.339Z,18.16
2023-10-11T19:47:10.821Z,18.12
2023-10-11T19:50:16.299Z,18.10
2023-10-11T19:53:21.156Z,18.03
2023-10-11T19:56:26.511Z,18.03
2023-10-11T19:59:31.820Z,18.01
2023-10-11T20:02:37.651Z,17.97
2023-10-11T20:05:43.014Z,17.98
2023-10-11T20:08:46.848Z,17.91
2023-10-11T20:11:51.904Z,17.89
2023-10-11T20:14:56.900Z,17.85
2023-10-11T20:18:00.675Z,17.85
2023-10-11T20:21:06.399Z,17.82
2023-10-11T20:24:11.762Z,17.78
2023-10-11T20:27:15.056Z,17.82
2023-10-11T20:30:27.953Z,17.75
2023-10-11T20:33:33.553Z,17.71
2023-10-11T20:36:38.176Z,17.64
2023-10-11T20:39:41.260Z,17.68
2023-10-11T20:42:45.009Z,17.68
2023-10-11T20:45:48.066Z,17.71
2023-10-11T20:48:51.333Z,17.72
2023-10-11T20:51:54.923Z,17.72
2023-10-11T20:54:58.721Z,17.68
2023-10-11T20:58:15.959Z,17.64
2023-10-11T21:01:19.558Z,17.71
2023-10-11T21:04:24.573Z,17.61
2023-10-11T21:07:28.993Z,17.52
2023-10-11T21:10:36.092Z,17.51
2023-10-11T21:13:39.275Z,17.49
2023-10-11T21:16:42.249Z,17.53
2023-10-11T21:19:47.040Z,17.50
2023-10-11T21:22:49.898Z,17.50
2023-10-11T21:26:07.369Z,17.46
2023-10-11T21:29:13.902Z,17.42
2023-10-11T21:32:17.554Z,17.40
2023-10-11T21:35:23.458Z,17.47
2023-10-11T21:38:26.750Z,17.49
2023-10-11T21:41:30.045Z,17.56
2023-10-11T21:44:33.691Z,17.51
2023-10-11T21:47:43.916Z,17.56
2023-10-11T21:50:49.530Z,17.54
2023-10-11T21:53:59.832Z,17.50
2023-10-11T21:57:03.029Z,17.44
2023-10-11T22:00:13.613Z,17.40
2023-10-11T22:03:21.482Z,17.40
2023-10-11T22:06:25.117Z,17.36
2023-10-11T22:09:29.421Z,17.34
2023-10-11T22:12:33.603Z,17.35
2023-10-11T22:15:37.017Z,17.33
2023-10-11T22:18:42.920Z,17.35
2023-10-11T22:21:47.501Z,17.31
2023-10-11T22:24:51.343Z,17.27
2023-10-11T22:28:01.290Z,17.28
2023-10-11T22:31:04.226Z,17.33
2023-10-11T22:34:08.788Z,17.29
2023-10-11T22:37:30.148Z,17.22
2023-10-11T22:40:35.152Z,17.21
2023-10-11T22:43:37.934Z,17.23
2023-10-11T22:46:43.479Z,17.25
2023-10-11T22:49:47.128Z,17.18
2023-10-11T22:52:51.046Z,17.21
2023-10-11T22:56:00.042Z,17.21
2023-10-11T22:59:07.431Z,17.20
2023-10-11T23:02:11.978Z,17.18
2023-10-11T23:05:16.180Z,17.19
2023-10-11T23:08:19.156Z,17.24
2023-10-11T23:11:23.734Z,17.25
2023-10-11T23:14:27.023Z,17.22
2023-10-11T23:17:31.068Z,17.22
2023-10-11T23:20:40.447Z,17.22
2023-10-11T23:23:43.808Z,17.25
2023-10-11T23:26:54.730Z,17.27
2023-10-11T23:30:01.456Z,17.24
2023-10-11T23:33:10.479Z,17.24
2023-10-11T23:36:13.626Z,17.27
2023-10-11T23:39:16.510Z,17.27
2023-10-11T23:42:23.128Z,17.23
2023-10-11T23:45:26.070Z,17.24
2023-10-11T23:48:34.631Z,17.29
2023-10-11T23:51:43.431Z,17.24
2023-10-11T23:54:50.620Z,17.21
2023-10-11T23:57:54.879Z,17.21
